Meteo Giornale » Osservazioni meteo Stati Uniti (USA) » New York City Central Park

ore: 16:51 - Osservazioni Meteo New York City Central Park
Lat. 40° 47' N Lon. 73° 58' W Alt. 47 metri s.l.m.

sereno America/New_York

26 °C

Sereno

Temp. 24 Ore

13 °C

26 °C

Sud-Ovest

11.1 Km/h

Dew point 14 °C

Umidità 47 %

Visibilità  10 Km

Il sole sorge alle ore 06:38

Il sole tramonta alle ore 17:39

Data e Ora Cielo e Fenomeni T °C DP °C Um. % Pres. hPa Vis. km Vento km/h
Oggi h: 16:51 sereno Sereno 26 14 47 1023 10 SO 11.1
Oggi h: 15:51 sereno Sereno 26 14 47 1023 10 SO 16.7
Oggi h: 14:51 sereno Sereno 25 15 53 1023 10 N 9.3
Oggi h: 13:51 sereno Sereno 24 15 57 1023 10 SO 11.1
Oggi h: 12:51 sereno Sereno 23 15 60 1024 10 N 7.4
Oggi h: 11:51 sereno Sereno 22 14 60 1024 10 N 0
Oggi h: 10:59 poco_nuvoloso Poco Nuvoloso 19 14 72 1025 10 O/SO 14.8
Oggi h: 10:51 molto_nuvoloso Molto Nuvoloso 19 14 72 1026 10 O 16.7
Oggi h: 09:51 coperto Coperto 18 14 77 1026 13 O/SO 13
Oggi h: 09:48 coperto Coperto 18 14 77 1026 13 O/SO 14.8
Oggi h: 08:51 coperto Coperto 17 14 82 1026 13 N 7.4
Oggi h: 07:51 coperto Coperto 17 14 82 1026 13 O/SO 16.7
Oggi h: 06:51 coperto Coperto 17 14 82 1026 14 O/SO 20.3
Oggi h: 06:37 coperto Coperto 16 14 87 1026 14 O/SO 16.7
Oggi h: 05:51 coperto Coperto 16 14 87 1026 13 N 9.3
Oggi h: 05:47 coperto Coperto 16 14 87 1026 13 N 5.5
Oggi h: 05:16 coperto Coperto 14 13 93 1026 10 N 7.4
Oggi h: 04:51 coperto Coperto 13 12 93 1026 10 N 0
Oggi h: 04:04 coperto Coperto 13 12 93 1026 10 N 7.4
Oggi h: 03:51 coperto Coperto 13 12 93 1026 13 N 0
Oggi h: 02:51 molto_nuvoloso Molto Nuvoloso 13 12 93 1026 14 N 0
Oggi h: 02:49 molto_nuvoloso Molto Nuvoloso 13 12 93 1026 14 N 0
Oggi h: 01:51 sereno Sereno 14 12 87 1027 10 N 0
Oggi h: 00:51 sereno Sereno 17 13 77 1027 10 N 9.3
Ieri h: 23:51 sereno Sereno 17 14 82 1027 10 SO 13
Ieri h: 22:51 sereno Sereno 18 14 77 1027 10 N 9.3
Ieri h: 21:51 sereno Sereno 18 13 72 1027 10 N 11.1
Ieri h: 20:51 sereno Sereno 17 12 72 1027 10 N 5.5
Ieri h: 19:51 sereno Sereno 16 12 77 1027 10 N 0
Ieri h: 18:51 sereno Sereno 19 13 68 1027 10 N 5.5
Ieri h: 17:51 sereno Sereno 19 12 63 1026 10 N 0
Ieri h: 16:51 sereno Sereno 19 12 63 1026 10 N 9.3